sensor_id;sensor_type;location;lat;lon;timestamp;pressure;altitude;pressure_sealevel;temperature;humidity
49297;BME280;35163;48.878;18.040;2023-02-16T00:02:09;99640.47;;;1.32;80.16
49297;BME280;35163;48.878;18.040;2023-02-16T00:04:36;99647.13;;;1.27;79.77
49297;BME280;35163;48.878;18.040;2023-02-16T00:07:02;99644.56;;;1.27;79.85
49297;BME280;35163;48.878;18.040;2023-02-16T00:09:29;99644.53;;;1.25;80.07
49297;BME280;35163;48.878;18.040;2023-02-16T00:11:56;99636.13;;;1.29;79.63
49297;BME280;35163;48.878;18.040;2023-02-16T00:14:41;99639.63;;;1.33;81.39
49297;BME280;35163;48.878;18.040;2023-02-16T00:17:09;99649.81;;;1.33;81.19
49297;BME280;35163;48.878;18.040;2023-02-16T00:19:38;99628.66;;;1.36;80.48
49297;BME280;35163;48.878;18.040;2023-02-16T00:22:07;99627.94;;;1.41;81.99
49297;BME280;35163;48.878;18.040;2023-02-16T00:24:34;99625.50;;;1.46;81.58
49297;BME280;35163;48.878;18.040;2023-02-16T00:27:01;99622.09;;;1.45;81.77
49297;BME280;35163;48.878;18.040;2023-02-16T00:29:30;99622.19;;;1.50;82.68
49297;BME280;35163;48.878;18.040;2023-02-16T00:31:59;99629.00;;;1.51;82.95
49297;BME280;35163;48.878;18.040;2023-02-16T00:34:41;99629.22;;;1.59;82.81
49297;BME280;35163;48.878;18.040;2023-02-16T00:37:10;99626.75;;;1.62;82.24
49297;BME280;35163;48.878;18.040;2023-02-16T00:39:38;99632.75;;;1.64;81.64
49297;BME280;35163;48.878;18.040;2023-02-16T00:42:18;99629.53;;;1.72;82.09
49297;BME280;35163;48.878;18.040;2023-02-16T00:44:50;99637.19;;;1.72;81.51
49297;BME280;35163;48.878;18.040;2023-02-16T00:47:22;99633.56;;;1.63;81.76
49297;BME280;35163;48.878;18.040;2023-02-16T00:49:53;99624.19;;;1.62;80.84
49297;BME280;35163;48.878;18.040;2023-02-16T00:52:30;99631.94;;;1.67;81.43
49297;BME280;35163;48.878;18.040;2023-02-16T00:54:58;99627.66;;;1.64;81.15
49297;BME280;35163;48.878;18.040;2023-02-16T00:57:26;99632.00;;;1.70;80.85
49297;BME280;35163;48.878;18.040;2023-02-16T01:00:01;99619.25;;;1.70;80.35
49297;BME280;35163;48.878;18.040;2023-02-16T01:02:28;99614.97;;;1.67;80.50
49297;BME280;35163;48.878;18.040;2023-02-16T01:04:54;99620.94;;;1.68;81.33
49297;BME280;35163;48.878;18.040;2023-02-16T01:07:21;99615.00;;;1.69;81.39
49297;BME280;35163;48.878;18.040;2023-02-16T01:10:06;99624.50;;;1.75;81.38
49297;BME280;35163;48.878;18.040;2023-02-16T01:12:52;99611.75;;;1.75;81.54
49297;BME280;35163;48.878;18.040;2023-02-16T01:15:21;99616.81;;;1.73;81.12
49297;BME280;35163;48.878;18.040;2023-02-16T01:17:48;99616.91;;;1.78;80.88
49297;BME280;35163;48.878;18.040;2023-02-16T01:20:16;99608.41;;;1.79;80.79
49297;BME280;35163;48.878;18.040;2023-02-16T01:22:43;99602.53;;;1.81;81.38
49297;BME280;35163;48.878;18.040;2023-02-16T01:25:11;99600.09;;;1.86;80.94
49297;BME280;35163;48.878;18.040;2023-02-16T01:27:38;99598.47;;;1.90;81.39
49297;BME280;35163;48.878;18.040;2023-02-16T01:30:09;99603.53;;;1.88;81.65
49297;BME280;35163;48.878;18.040;2023-02-16T01:32:37;99598.34;;;1.84;81.25
49297;BME280;35163;48.878;18.040;2023-02-16T01:35:04;99589.81;;;1.83;80.69
49297;BME280;35163;48.878;18.040;2023-02-16T01:37:33;99581.34;;;1.84;81.45
49297;BME280;35163;48.878;18.040;2023-02-16T01:40:02;99581.41;;;1.87;81.62
49297;BME280;35163;48.878;18.040;2023-02-16T01:42:50;99585.66;;;1.87;81.72
49297;BME280;35163;48.878;18.040;2023-02-16T01:45:25;99580.59;;;1.88;81.29
49297;BME280;35163;48.878;18.040;2023-02-16T01:48:02;99577.00;;;1.80;81.28
49297;BME280;35163;48.878;18.040;2023-02-16T01:50:48;99573.19;;;1.62;80.64
49297;BME280;35163;48.878;18.040;2023-02-16T01:53:30;99566.59;;;1.72;81.15
49297;BME280;35163;48.878;18.040;2023-02-16T01:56:32;99565.84;;;1.75;80.76
49297;BME280;35163;48.878;18.040;2023-02-16T01:59:04;99559.09;;;1.77;80.90
49297;BME280;35163;48.878;18.040;2023-02-16T02:01:44;99557.44;;;1.80;81.09
49297;BME280;35163;48.878;18.040;2023-02-16T02:04:37;99550.72;;;1.84;81.03
49297;BME280;35163;48.878;18.040;2023-02-16T02:07:29;99546.53;;;1.86;81.38
49297;BME280;35163;48.878;18.040;2023-02-16T02:10:06;99546.66;;;1.92;81.01
49297;BME280;35163;48.878;18.040;2023-02-16T02:12:49;99544.97;;;1.93;81.81
49297;BME280;35163;48.878;18.040;2023-02-16T02:15:23;99540.81;;;1.97;81.11
49297;BME280;35163;48.878;18.040;2023-02-16T02:17:51;99539.88;;;1.93;81.22
49297;BME280;35163;48.878;18.040;2023-02-16T02:20:21;99537.34;;;1.94;81.16
49297;BME280;35163;48.878;18.040;2023-02-16T02:35:13;99530.38;;;1.87;80.62
49297;BME280;35163;48.878;18.040;2023-02-16T02:38:20;99525.34;;;1.89;80.91
49297;BME280;35163;48.878;18.040;2023-02-16T02:43:59;99534.66;;;1.88;80.87
49297;BME280;35163;48.878;18.040;2023-02-16T02:46:31;99533.78;;;1.86;80.99
49297;BME280;35163;48.878;18.040;2023-02-16T02:48:58;99532.19;;;1.91;80.54
49297;BME280;35163;48.878;18.040;2023-02-16T02:51:25;99534.75;;;1.93;80.46
49297;BME280;35163;48.878;18.040;2023-02-16T02:54:26;99530.53;;;1.93;80.67
49297;BME280;35163;48.878;18.040;2023-02-16T02:57:33;99530.47;;;1.90;81.04
49297;BME280;35163;48.878;18.040;2023-02-16T03:03:20;99546.75;;;1.96;81.18
49297;BME280;35163;48.878;18.040;2023-02-16T03:05:55;99540.84;;;2.00;81.01
49297;BME280;35163;48.878;18.040;2023-02-16T03:08:28;99545.03;;;1.96;81.48
49297;BME280;35163;48.878;18.040;2023-02-16T03:11:03;99547.72;;;2.02;81.87
49297;BME280;35163;48.878;18.040;2023-02-16T03:13:54;99549.44;;;2.03;80.57
49297;BME280;35163;48.878;18.040;2023-02-16T03:16:26;99546.84;;;2.00;81.14
49297;BME280;35163;48.878;18.040;2023-02-16T03:18:56;99549.31;;;1.97;80.53
49297;BME280;35163;48.878;18.040;2023-02-16T03:21:42;99545.84;;;1.93;80.69
49297;BME280;35163;48.878;18.040;2023-02-16T03:24:30;99541.63;;;1.96;80.43
49297;BME280;35163;48.878;18.040;2023-02-16T03:27:35;99534.00;;;1.96;81.03
49297;BME280;35163;48.878;18.040;2023-02-16T03:30:25;99535.72;;;1.98;80.97
49297;BME280;35163;48.878;18.040;2023-02-16T03:32:53;99526.22;;;1.91;80.43
49297;BME280;35163;48.878;18.040;2023-02-16T03:35:20;99537.41;;;1.98;80.75
49297;BME280;35163;48.878;18.040;2023-02-16T03:37:49;99533.91;;;1.92;81.49
49297;BME280;35163;48.878;18.040;2023-02-16T03:40:16;99540.84;;;2.00;80.75
49297;BME280;35163;48.878;18.040;2023-02-16T03:42:57;99537.44;;;1.99;80.55
49297;BME280;35163;48.878;18.040;2023-02-16T03:45:24;99535.13;;;2.10;80.09
49297;BME280;35163;48.878;18.040;2023-02-16T03:47:52;99540.19;;;2.09;80.71
49297;BME280;35163;48.878;18.040;2023-02-16T03:50:19;99537.84;;;2.18;80.47
49297;BME280;35163;48.878;18.040;2023-02-16T03:52:45;99531.84;;;2.16;79.91
49297;BME280;35163;48.878;18.040;2023-02-16T03:55:12;99537.00;;;2.19;80.64
49297;BME280;35163;48.878;18.040;2023-02-16T03:57:39;99537.78;;;2.16;80.49
49297;BME280;35163;48.878;18.040;2023-02-16T04:00:06;99534.50;;;2.21;80.22
49297;BME280;35163;48.878;18.040;2023-02-16T04:02:33;99532.81;;;2.21;80.25
49297;BME280;35163;48.878;18.040;2023-02-16T04:04:59;99537.03;;;2.21;80.55
49297;BME280;35163;48.878;18.040;2023-02-16T04:07:26;99536.13;;;2.17;79.84
49297;BME280;35163;48.878;18.040;2023-02-16T04:09:54;99530.97;;;2.15;80.08
49297;BME280;35163;48.878;18.040;2023-02-16T04:12:20;99530.06;;;2.12;81.44
49297;BME280;35163;48.878;18.040;2023-02-16T04:15:26;99523.25;;;2.11;82.55
49297;BME280;35163;48.878;18.040;2023-02-16T04:17:53;99525.09;;;2.18;82.69
49297;BME280;35163;48.878;18.040;2023-02-16T04:20:23;99526.81;;;2.19;81.89
49297;BME280;35163;48.878;18.040;2023-02-16T04:22:50;99525.13;;;2.20;81.60
49297;BME280;35163;48.878;18.040;2023-02-16T04:25:18;99526.13;;;2.28;82.11
49297;BME280;35163;48.878;18.040;2023-02-16T04:27:46;99524.47;;;2.30;81.95
49297;BME280;35163;48.878;18.040;2023-02-16T04:30:15;99515.91;;;2.26;80.76
49297;BME280;35163;48.878;18.040;2023-02-16T04:32:42;99510.69;;;2.22;81.59
49297;BME280;35163;48.878;18.040;2023-02-16T04:35:09;99504.78;;;2.24;81.10
49297;BME280;35163;48.878;18.040;2023-02-16T04:37:36;99498.75;;;2.21;81.73
49297;BME280;35163;48.878;18.040;2023-02-16T04:40:05;99503.19;;;2.29;82.33
49297;BME280;35163;48.878;18.040;2023-02-16T04:42:31;99496.47;;;2.35;81.89
49297;BME280;35163;48.878;18.040;2023-02-16T04:44:58;99489.63;;;2.32;80.70
49297;BME280;35163;48.878;18.040;2023-02-16T04:47:25;99495.63;;;2.36;80.87
49297;BME280;35163;48.878;18.040;2023-02-16T04:49:52;99490.44;;;2.31;81.08
49297;BME280;35163;48.878;18.040;2023-02-16T04:52:19;99490.53;;;2.36;80.75
49297;BME280;35163;48.878;18.040;2023-02-16T04:54:46;99490.44;;;2.31;80.61
49297;BME280;35163;48.878;18.040;2023-02-16T04:57:12;99496.41;;;2.30;80.87
49297;BME280;35163;48.878;18.040;2023-02-16T04:59:39;99487.84;;;2.28;80.32
49297;BME280;35163;48.878;18.040;2023-02-16T05:02:06;99480.19;;;2.28;80.33
49297;BME280;35163;48.878;18.040;2023-02-16T05:04:32;99480.19;;;2.28;80.21
49297;BME280;35163;48.878;18.040;2023-02-16T05:06:59;99470.81;;;2.28;80.23
49297;BME280;35163;48.878;18.040;2023-02-16T05:09:26;99476.75;;;2.26;80.00
49297;BME280;35163;48.878;18.040;2023-02-16T05:11:52;99485.31;;;2.29;80.20
49297;BME280;35163;48.878;18.040;2023-02-16T05:14:38;99476.00;;;2.32;80.33
49297;BME280;35163;48.878;18.040;2023-02-16T05:19:47;99466.78;;;2.38;79.96
49297;BME280;35163;48.878;18.040;2023-02-16T05:22:14;99477.00;;;2.40;79.44
49297;BME280;35163;48.878;18.040;2023-02-16T05:24:41;99475.25;;;2.37;79.02
49297;BME280;35163;48.878;18.040;2023-02-16T05:27:14;99469.31;;;2.38;79.71
49297;BME280;35163;48.878;18.040;2023-02-16T05:29:41;99470.16;;;2.39;79.03
49297;BME280;35163;48.878;18.040;2023-02-16T05:32:07;99474.47;;;2.40;79.18
49297;BME280;35163;48.878;18.040;2023-02-16T05:34:34;99476.97;;;2.38;79.68
49297;BME280;35163;48.878;18.040;2023-02-16T05:37:01;99470.13;;;2.37;79.84
49297;BME280;35163;48.878;18.040;2023-02-16T05:39:27;99472.81;;;2.42;80.13
49297;BME280;35163;48.878;18.040;2023-02-16T05:41:54;99479.56;;;2.40;79.69
49297;BME280;35163;48.878;18.040;2023-02-16T05:44:21;99480.47;;;2.42;79.72
49297;BME280;35163;48.878;18.040;2023-02-16T05:46:47;99479.59;;;2.41;79.84
49297;BME280;35163;48.878;18.040;2023-02-16T05:49:15;99485.59;;;2.43;80.23
49297;BME280;35163;48.878;18.040;2023-02-16T05:51:41;99491.47;;;2.41;79.81
49297;BME280;35163;48.878;18.040;2023-02-16T05:54:08;99488.84;;;2.36;79.44
49297;BME280;35163;48.878;18.040;2023-02-16T05:56:36;99477.81;;;2.39;79.85
49297;BME280;35163;48.878;18.040;2023-02-16T05:59:02;99488.91;;;2.39;80.10
49297;BME280;35163;48.878;18.040;2023-02-16T06:01:29;99484.66;;;2.40;79.75
49297;BME280;35163;48.878;18.040;2023-02-16T06:03:56;99482.97;;;2.40;79.58
49297;BME280;35163;48.878;18.040;2023-02-16T06:06:22;99485.47;;;2.37;80.01
49297;BME280;35163;48.878;18.040;2023-02-16T06:08:49;99488.91;;;2.39;79.66
49297;BME280;35163;48.878;18.040;2023-02-16T06:11:15;99487.19;;;2.38;79.92
49297;BME280;35163;48.878;18.040;2023-02-16T06:14:11;99489.78;;;2.40;79.98
49297;BME280;35163;48.878;18.040;2023-02-16T06:16:41;99481.28;;;2.41;79.65
49297;BME280;35163;48.878;18.040;2023-02-16T06:19:08;99488.84;;;2.36;80.22
49297;BME280;35163;48.878;18.040;2023-02-16T06:21:36;99488.84;;;2.36;80.20
49297;BME280;35163;48.878;18.040;2023-02-16T06:24:04;99486.34;;;2.39;80.42
49297;BME280;35163;48.878;18.040;2023-02-16T06:26:31;99494.88;;;2.40;80.71
49297;BME280;35163;48.878;18.040;2023-02-16T06:28:57;99500.91;;;2.43;80.07
49297;BME280;35163;48.878;18.040;2023-02-16T06:31:24;99499.13;;;2.39;79.81
49297;BME280;35163;48.878;18.040;2023-02-16T06:33:52;99505.09;;;2.40;79.81
49297;BME280;35163;48.878;18.040;2023-02-16T06:36:19;99504.94;;;2.34;80.03
49297;BME280;35163;48.878;18.040;2023-02-16T06:38:46;99502.41;;;2.34;79.74
49297;BME280;35163;48.878;18.040;2023-02-16T06:41:13;99501.59;;;2.35;80.29
49297;BME280;35163;48.878;18.040;2023-02-16T06:44:01;99500.66;;;2.31;79.99
49297;BME280;35163;48.878;18.040;2023-02-16T06:46:28;99506.66;;;2.33;79.88
49297;BME280;35163;48.878;18.040;2023-02-16T06:48:54;99503.31;;;2.37;80.00
49297;BME280;35163;48.878;18.040;2023-02-16T06:51:21;99502.56;;;2.41;80.35
49297;BME280;35163;48.878;18.040;2023-02-16T06:53:48;99499.22;;;2.46;80.34
49297;BME280;35163;48.878;18.040;2023-02-16T06:56:15;99491.66;;;2.50;80.21
49297;BME280;35163;48.878;18.040;2023-02-16T06:58:41;99508.69;;;2.51;80.80
49297;BME280;35163;48.878;18.040;2023-02-16T07:01:08;99497.75;;;2.57;80.33
49297;BME280;35163;48.878;18.040;2023-02-16T07:03:35;99497.84;;;2.63;80.77
49297;BME280;35163;48.878;18.040;2023-02-16T07:06:01;99499.59;;;2.64;80.16
49297;BME280;35163;48.878;18.040;2023-02-16T07:08:28;99492.72;;;2.62;80.13
49297;BME280;35163;48.878;18.040;2023-02-16T07:10:55;99490.16;;;2.62;79.82
49297;BME280;35163;48.878;18.040;2023-02-16T07:13:21;99490.16;;;2.62;79.86
49297;BME280;35163;48.878;18.040;2023-02-16T07:15:48;99496.19;;;2.65;79.94
49297;BME280;35163;48.878;18.040;2023-02-16T07:18:15;99490.25;;;2.66;79.99
49297;BME280;35163;48.878;18.040;2023-02-16T07:20:41;99496.25;;;2.69;79.73
49297;BME280;35163;48.878;18.040;2023-02-16T07:23:08;99493.72;;;2.70;79.96
49297;BME280;35163;48.878;18.040;2023-02-16T07:25:35;99503.13;;;2.71;79.61
49297;BME280;35163;48.878;18.040;2023-02-16T07:28:02;99508.16;;;2.70;80.20
49297;BME280;35163;48.878;18.040;2023-02-16T07:30:29;99511.56;;;2.69;80.32
49297;BME280;35163;48.878;18.040;2023-02-16T07:32:56;99506.47;;;2.69;80.23
49297;BME280;35163;48.878;18.040;2023-02-16T07:35:23;99509.06;;;2.72;80.04
49297;BME280;35163;48.878;18.040;2023-02-16T07:37:49;99503.97;;;2.72;79.77
49297;BME280;35163;48.878;18.040;2023-02-16T07:40:16;99508.34;;;2.79;79.94
49297;BME280;35163;48.878;18.040;2023-02-16T07:42:43;99506.69;;;2.81;79.94
49297;BME280;35163;48.878;18.040;2023-02-16T07:45:09;99508.41;;;2.84;79.28
49297;BME280;35163;48.878;18.040;2023-02-16T07:47:36;99506.75;;;2.84;79.42
49297;BME280;35163;48.878;18.040;2023-02-16T07:50:03;99504.25;;;2.89;79.16
49297;BME280;35163;48.878;18.040;2023-02-16T07:52:30;99500.03;;;2.91;78.85
49297;BME280;35163;48.878;18.040;2023-02-16T07:54:57;99499.97;;;2.86;79.84
49297;BME280;35163;48.878;18.040;2023-02-16T07:57:27;99495.81;;;2.93;79.71
49297;BME280;35163;48.878;18.040;2023-02-16T07:59:54;99487.34;;;2.97;79.79
49297;BME280;35163;48.878;18.040;2023-02-16T08:02:22;99491.75;;;3.06;79.66
49297;BME280;35163;48.878;18.040;2023-02-16T08:04:49;99486.66;;;3.08;79.86
49297;BME280;35163;48.878;18.040;2023-02-16T08:07:19;99484.34;;;3.22;79.30
49297;BME280;35163;48.878;18.040;2023-02-16T08:09:45;99485.06;;;3.14;79.41
49297;BME280;35163;48.878;18.040;2023-02-16T08:12:13;99475.81;;;3.21;79.93
49297;BME280;35163;48.878;18.040;2023-02-16T08:14:41;99475.06;;;3.27;79.32
49297;BME280;35163;48.878;18.040;2023-02-16T08:17:08;99485.34;;;3.33;78.98
49297;BME280;35163;48.878;18.040;2023-02-16T08:19:35;99492.16;;;3.31;79.34
49297;BME280;35163;48.878;18.040;2023-02-16T08:22:06;99478.59;;;3.35;78.96
49297;BME280;35163;48.878;18.040;2023-02-16T08:24:34;99478.50;;;3.29;79.22
49297;BME280;35163;48.878;18.040;2023-02-16T08:27:02;99488.91;;;3.42;79.40
49297;BME280;35163;48.878;18.040;2023-02-16T08:29:30;99482.97;;;3.44;78.67
49297;BME280;35163;48.878;18.040;2023-02-16T08:31:57;99490.75;;;3.52;78.49
49297;BME280;35163;48.878;18.040;2023-02-16T08:34:25;99488.25;;;3.54;77.97
49297;BME280;35163;48.878;18.040;2023-02-16T08:36:55;99487.44;;;3.59;77.77
49297;BME280;35163;48.878;18.040;2023-02-16T08:39:27;99494.34;;;3.65;77.60
49297;BME280;35163;48.878;18.040;2023-02-16T08:41:56;99496.03;;;3.64;77.56
49297;BME280;35163;48.878;18.040;2023-02-16T08:44:24;99501.22;;;3.69;77.56
49297;BME280;35163;48.878;18.040;2023-02-16T08:46:53;99494.44;;;3.71;77.56
49297;BME280;35163;48.878;18.040;2023-02-16T08:49:21;99508.97;;;3.74;77.13
49297;BME280;35163;48.878;18.040;2023-02-16T08:51:52;99506.50;;;3.80;77.27
49297;BME280;35163;48.878;18.040;2023-02-16T08:54:26;99508.31;;;3.87;77.01
49297;BME280;35163;48.878;18.040;2023-02-16T08:56:53;99509.19;;;3.89;76.98
49297;BME280;35163;48.878;18.040;2023-02-16T08:59:22;99506.75;;;3.99;77.15
49297;BME280;35163;48.878;18.040;2023-02-16T09:01:50;99502.56;;;4.07;76.65
49297;BME280;35163;48.878;18.040;2023-02-16T09:04:18;99506.06;;;4.14;76.62
49297;BME280;35163;48.878;18.040;2023-02-16T09:06:46;99505.22;;;4.13;76.11
49297;BME280;35163;48.878;18.040;2023-02-16T09:09:14;99502.69;;;4.17;75.58
49297;BME280;35163;48.878;18.040;2023-02-16T09:11:40;99504.44;;;4.21;75.60
49297;BME280;35163;48.878;18.040;2023-02-16T09:14:07;99508.72;;;4.19;75.58
49297;BME280;35163;48.878;18.040;2023-02-16T09:16:35;99510.47;;;4.26;76.19
49297;BME280;35163;48.878;18.040;2023-02-16T09:19:05;99514.88;;;4.36;76.03
49297;BME280;35163;48.878;18.040;2023-02-16T09:21:33;99512.28;;;4.33;75.95
49297;BME280;35163;48.878;18.040;2023-02-16T09:24:01;99515.78;;;4.42;76.17
49297;BME280;35163;48.878;18.040;2023-02-16T09:26:31;99519.25;;;4.48;76.31
49297;BME280;35163;48.878;18.040;2023-02-16T09:28:59;99512.47;;;4.50;76.28
49297;BME280;35163;48.878;18.040;2023-02-16T09:31:29;99515.97;;;4.60;75.91
49297;BME280;35163;48.878;18.040;2023-02-16T09:34:01;99515.19;;;4.65;75.84
49297;BME280;35163;48.878;18.040;2023-02-16T09:36:28;99519.47;;;4.69;75.83
49297;BME280;35163;48.878;18.040;2023-02-16T09:38:55;99517.81;;;4.74;75.58
49297;BME280;35163;48.878;18.040;2023-02-16T09:44:49;99520.47;;;4.80;75.31
49297;BME280;35163;48.878;18.040;2023-02-16T09:47:24;99520.53;;;4.90;75.21
49297;BME280;35163;48.878;18.040;2023-02-16T09:49:56;99514.59;;;4.92;74.79
49297;BME280;35163;48.878;18.040;2023-02-16T09:52:36;99516.34;;;4.98;74.26
49297;BME280;35163;48.878;18.040;2023-02-16T09:55:16;99517.22;;;5.03;74.51
49297;BME280;35163;48.878;18.040;2023-02-16T10:03:16;99508.00;;;5.24;73.64
49297;BME280;35163;48.878;18.040;2023-02-16T10:08:32;99503.88;;;5.40;73.24
49297;BME280;35163;48.878;18.040;2023-02-16T10:11:09;99516.72;;;5.45;73.05
49297;BME280;35163;48.878;18.040;2023-02-16T10:13:59;99509.94;;;5.55;72.66
49297;BME280;35163;48.878;18.040;2023-02-16T10:16:43;99510.00;;;5.63;72.17
49297;BME280;35163;48.878;18.040;2023-02-16T10:19:22;99498.84;;;5.59;71.35
49297;BME280;35163;48.878;18.040;2023-02-16T10:21:55;99492.06;;;5.70;71.05
49297;BME280;35163;48.878;18.040;2023-02-16T10:24:26;99492.13;;;5.81;71.08
49297;BME280;35163;48.878;18.040;2023-02-16T10:27:04;99486.19;;;5.92;70.68
49297;BME280;35163;48.878;18.040;2023-02-16T10:29:33;99490.53;;;5.99;70.14
49297;BME280;35163;48.878;18.040;2023-02-16T10:34:57;99486.22;;;6.04;70.20
49297;BME280;35163;48.878;18.040;2023-02-16T10:43:24;99490.63;;;6.23;69.18
49297;BME280;35163;48.878;18.040;2023-02-16T10:45:56;99482.06;;;6.27;69.52
49297;BME280;35163;48.878;18.040;2023-02-16T10:48:28;99485.50;;;6.29;69.73
49297;BME280;35163;48.878;18.040;2023-02-16T10:51:10;99481.25;;;6.39;69.86
49297;BME280;35163;48.878;18.040;2023-02-16T10:53:42;99483.03;;;6.55;69.59
49297;BME280;35163;48.878;18.040;2023-02-16T10:58:52;99471.88;;;6.47;68.61
49297;BME280;35163;48.878;18.040;2023-02-16T11:01:35;99469.31;;;6.53;68.81
49297;BME280;35163;48.878;18.040;2023-02-16T11:04:03;99467.59;;;6.55;68.73
49297;BME280;35163;48.878;18.040;2023-02-16T11:06:30;99472.75;;;6.62;68.25
49297;BME280;35163;48.878;18.040;2023-02-16T11:08:58;99469.31;;;6.63;68.40
49297;BME280;35163;48.878;18.040;2023-02-16T11:11:35;99465.03;;;6.66;68.05
49297;BME280;35163;48.878;18.040;2023-02-16T11:14:27;99466.75;;;6.66;68.13
49297;BME280;35163;48.878;18.040;2023-02-16T11:17:11;99454.78;;;6.73;67.67
49297;BME280;35163;48.878;18.040;2023-02-16T11:19:47;99459.91;;;6.85;68.04
49297;BME280;35163;48.878;18.040;2023-02-16T11:22:35;99454.78;;;6.95;68.70
49297;BME280;35163;48.878;18.040;2023-02-16T11:25:23;99449.66;;;7.05;68.28
49297;BME280;35163;48.878;18.040;2023-02-16T11:27:52;99442.78;;;7.04;67.52
49297;BME280;35163;48.878;18.040;2023-02-16T11:30:39;99438.50;;;7.07;67.19
49297;BME280;35163;48.878;18.040;2023-02-16T11:33:24;99430.78;;;6.99;66.86
49297;BME280;35163;48.878;18.040;2023-02-16T11:35:54;99432.47;;;7.08;67.85
49297;BME280;35163;48.878;18.040;2023-02-16T11:38:32;99423.03;;;7.13;66.74
49297;BME280;35163;48.878;18.040;2023-02-16T11:41:02;99419.63;;;7.12;66.98
49297;BME280;35163;48.878;18.040;2023-02-16T11:43:35;99413.63;;;7.13;67.21
49297;BME280;35163;48.878;18.040;2023-02-16T11:46:08;99404.19;;;7.19;66.50
49297;BME280;35163;48.878;18.040;2023-02-16T11:48:39;99405.03;;;7.11;66.63
49297;BME280;35163;48.878;18.040;2023-02-16T11:51:07;99412.75;;;7.14;67.03
49297;BME280;35163;48.878;18.040;2023-02-16T11:53:37;99407.59;;;7.21;67.34
49297;BME280;35163;48.878;18.040;2023-02-16T11:56:11;99402.47;;;7.22;67.30
49297;BME280;35163;48.878;18.040;2023-02-16T11:58:38;99399.88;;;7.24;67.40
49297;BME280;35163;48.878;18.040;2023-02-16T12:01:25;99399.00;;;7.36;67.18
49297;BME280;35163;48.878;18.040;2023-02-16T12:10:02;99381.81;;;7.47;66.76
49297;BME280;35163;48.878;18.040;2023-02-16T12:23:12;99363.78;;;7.53;66.32
49297;BME280;35163;48.878;18.040;2023-02-16T12:31:21;99355.09;;;7.75;66.18
49297;BME280;35163;48.878;18.040;2023-02-16T12:39:20;99332.84;;;7.61;66.21
49297;BME280;35163;48.878;18.040;2023-02-16T12:45:00;99333.72;;;7.56;65.47
49297;BME280;35163;48.878;18.040;2023-02-16T12:47:55;99330.28;;;7.60;66.12
49297;BME280;35163;48.878;18.040;2023-02-16T12:50:33;99326.75;;;7.76;66.60
49297;BME280;35163;48.878;18.040;2023-02-16T12:53:05;99331.06;;;7.79;66.36
49297;BME280;35163;48.878;18.040;2023-02-16T12:55:50;99337.03;;;7.80;65.69
49297;BME280;35163;48.878;18.040;2023-02-16T12:58:24;99335.34;;;7.75;65.15
49297;BME280;35163;48.878;18.040;2023-02-16T13:01:00;99335.34;;;7.75;65.26
49297;BME280;35163;48.878;18.040;2023-02-16T13:03:52;99331.88;;;7.80;65.52
49297;BME280;35163;48.878;18.040;2023-02-16T13:06:29;99326.75;;;7.83;65.57
49297;BME280;35163;48.878;18.040;2023-02-16T13:09:34;99320.78;;;7.76;64.87
49297;BME280;35163;48.878;18.040;2023-02-16T13:12:19;99313.88;;;7.80;65.32
49297;BME280;35163;48.878;18.040;2023-02-16T13:15:04;99308.66;;;7.92;65.55
49297;BME280;35163;48.878;18.040;2023-02-16T13:17:34;99314.69;;;7.91;65.68
49297;BME280;35163;48.878;18.040;2023-02-16T13:20:02;99300.91;;;7.92;65.18
49297;BME280;35163;48.878;18.040;2023-02-16T13:25:28;99297.50;;;7.88;65.13
49297;BME280;35163;48.878;18.040;2023-02-16T13:33:54;99294.91;;;7.90;65.36
49297;BME280;35163;48.878;18.040;2023-02-16T13:36:48;99289.84;;;7.82;65.67
49297;BME280;35163;48.878;18.040;2023-02-16T13:45:31;99285.44;;;8.01;65.51
49297;BME280;35163;48.878;18.040;2023-02-16T13:47:58;99283.69;;;8.02;65.25
49297;BME280;35163;48.878;18.040;2023-02-16T13:50:32;99286.28;;;7.97;65.04
49297;BME280;35163;48.878;18.040;2023-02-16T13:53:16;99282.03;;;7.96;65.36
49297;BME280;35163;48.878;18.040;2023-02-16T13:55:45;99288.09;;;7.86;64.93
49297;BME280;35163;48.878;18.040;2023-02-16T14:00:42;99289.78;;;7.88;65.70
49297;BME280;35163;48.878;18.040;2023-02-16T14:05:49;99283.78;;;7.89;66.17
49297;BME280;35163;48.878;18.040;2023-02-16T14:08:20;99283.75;;;7.94;65.74
49297;BME280;35163;48.878;18.040;2023-02-16T14:16:07;99283.72;;;7.97;65.83
49297;BME280;35163;48.878;18.040;2023-02-16T14:21:27;99276.00;;;7.96;66.10
49297;BME280;35163;48.878;18.040;2023-02-16T14:23:58;99280.34;;;7.90;66.02
49297;BME280;35163;48.878;18.040;2023-02-16T14:26:26;99278.66;;;7.85;66.43
49297;BME280;35163;48.878;18.040;2023-02-16T14:29:33;99277.81;;;7.83;66.25
49297;BME280;35163;48.878;18.040;2023-02-16T14:32:24;99269.25;;;7.79;66.16
49297;BME280;35163;48.878;18.040;2023-02-16T14:35:03;99274.41;;;7.77;66.51
49297;BME280;35163;48.878;18.040;2023-02-16T14:37:37;99264.97;;;7.78;66.79
49297;BME280;35163;48.878;18.040;2023-02-16T14:40:22;99270.09;;;7.78;66.81
49297;BME280;35163;48.878;18.040;2023-02-16T14:43:38;99270.09;;;7.80;66.56
49297;BME280;35163;48.878;18.040;2023-02-16T14:54:32;99268.47;;;7.69;67.14
49297;BME280;35163;48.878;18.040;2023-02-16T14:57:13;99266.72;;;7.71;67.03
49297;BME280;35163;48.878;18.040;2023-02-16T14:59:51;99271.03;;;7.68;66.91
49297;BME280;35163;48.878;18.040;2023-02-16T15:02:30;99272.78;;;7.62;67.07
49297;BME280;35163;48.878;18.040;2023-02-16T15:04:57;99259.94;;;7.58;66.74
49297;BME280;35163;48.878;18.040;2023-02-16T15:07:25;99261.66;;;7.56;66.58
49297;BME280;35163;48.878;18.040;2023-02-16T15:09:56;99261.66;;;7.54;66.39
49297;BME280;35163;48.878;18.040;2023-02-16T15:12:29;99256.56;;;7.49;66.98
49297;BME280;35163;48.878;18.040;2023-02-16T15:15:04;99264.28;;;7.48;66.85
49297;BME280;35163;48.878;18.040;2023-02-16T15:17:36;99265.16;;;7.42;67.19
49297;BME280;35163;48.878;18.040;2023-02-16T15:20:27;99265.16;;;7.40;67.42